Time;durP1;ratioP1;P1;durP2;ratioP2;P2;SDS_P1;SDS_P2;PMS_P1;PMS_P2;Temp;Humidity;BMP_temperature;BMP_pressure;BME280_temperature;BME280_humidity;BME280_pressure;Samples;Min_cycle;Max_cycle;Signal;HPM_P1;HPM_P2
2023/12/11 00:00:27;;;;;;;0.57;0.40;;;8.30;99.90;;;;;;2060233;28;20715;-82
2023/12/11 00:01:35;;;;;;;0.67;0.60;;;8.20;99.90;;;;;;2062002;28;20265;-84
2023/12/11 00:02:35;;;;;;;0.50;0.50;;;8.20;99.90;;;;;;2065490;28;20230;-84
2023/12/11 00:03:36;;;;;;;1.60;0.40;;;8.30;99.90;;;;;;2057540;28;20227;-82
2023/12/11 00:04:37;;;;;;;0.45;0.32;;;8.30;99.90;;;;;;2022876;29;20358;-83
2023/12/11 00:05:39;;;;;;;0.93;0.40;;;8.20;99.90;;;;;;2023137;29;20297;-83
2023/12/11 00:06:40;;;;;;;0.60;0.40;;;8.30;99.90;;;;;;2022286;29;20889;-83
2023/12/11 00:07:41;;;;;;;0.35;0.35;;;8.20;99.90;;;;;;2032275;28;20229;-82
2023/12/11 00:08:42;;;;;;;0.40;0.40;;;8.20;99.90;;;;;;2043029;28;20312;-83
2023/12/11 00:09:43;;;;;;;0.43;0.40;;;8.20;99.90;;;;;;2037949;28;20256;-83
2023/12/11 00:10:43;;;;;;;0.50;0.50;;;8.30;99.90;;;;;;2030851;29;20315;-84
2023/12/11 00:11:44;;;;;;;1.07;0.40;;;8.30;99.90;;;;;;2021154;29;20645;-84
2023/12/11 00:12:45;;;;;;;0.40;0.40;;;8.30;99.90;;;;;;2022609;28;20201;-83
2023/12/11 00:13:46;;;;;;;0.30;0.30;;;8.30;99.90;;;;;;2009685;28;20656;-84
2023/12/11 00:14:46;;;;;;;0.40;0.40;;;8.30;99.90;;;;;;2023253;29;20235;-84
2023/12/11 00:15:47;;;;;;;0.60;0.57;;;8.30;99.90;;;;;;2018352;29;20213;-83
2023/12/11 00:16:48;;;;;;;0.40;0.40;;;8.30;99.90;;;;;;2032759;29;20208;-84
2023/12/11 00:17:48;;;;;;;0.37;0.37;;;8.30;99.90;;;;;;2040101;29;20772;-85
2023/12/11 00:18:49;;;;;;;0.40;0.40;;;8.40;99.90;;;;;;2023936;28;20277;-84
2023/12/11 00:19:50;;;;;;;0.43;0.40;;;8.50;99.90;;;;;;2024325;28;20565;-84
2023/12/11 00:20:50;;;;;;;0.47;0.33;;;8.40;99.90;;;;;;2031876;29;20196;-84
2023/12/11 00:21:51;;;;;;;0.40;0.40;;;8.30;99.90;;;;;;2040178;29;20184;-84
2023/12/11 00:22:52;;;;;;;0.33;0.33;;;8.40;99.90;;;;;;2031486;29;20748;-83
2023/12/11 00:23:53;;;;;;;0.93;0.43;;;8.40;99.90;;;;;;2032492;29;20282;-83
2023/12/11 00:24:54;;;;;;;0.43;0.40;;;8.40;99.90;;;;;;2025806;29;20220;-84
2023/12/11 00:25:54;;;;;;;0.30;0.30;;;8.40;99.90;;;;;;2024458;28;20301;-86
2023/12/11 00:26:55;;;;;;;0.30;0.30;;;8.50;99.90;;;;;;2024685;29;20345;-85
2023/12/11 00:27:56;;;;;;;0.47;0.40;;;8.40;99.90;;;;;;2023964;29;20190;-84
2023/12/11 00:28:56;;;;;;;0.30;0.30;;;8.50;99.90;;;;;;2023533;29;20188;-84
2023/12/11 00:29:59;;;;;;;0.40;0.40;;;8.50;99.90;;;;;;2020814;28;20185;-84
2023/12/11 00:31:01;;;;;;;0.40;0.30;;;8.50;99.90;;;;;;2024001;28;20210;-84
2023/12/11 00:32:02;;;;;;;0.30;0.30;;;8.60;99.90;;;;;;2049012;28;20698;-84
2023/12/11 00:33:02;;;;;;;0.73;0.30;;;8.70;99.90;;;;;;2063795;28;20194;-84
2023/12/11 00:34:03;;;;;;;0.30;0.30;;;8.70;99.90;;;;;;2038708;28;20232;-84
2023/12/11 00:35:04;;;;;;;0.30;0.30;;;8.70;99.90;;;;;;2027073;29;20283;-84
2023/12/11 00:36:05;;;;;;;0.20;0.20;;;8.70;99.90;;;;;;2031469;29;20316;-84
2023/12/11 00:37:06;;;;;;;0.30;0.30;;;8.70;99.90;;;;;;2038874;29;20228;-84
2023/12/11 00:38:07;;;;;;;0.30;0.30;;;8.70;99.90;;;;;;2029702;29;20229;-84
2023/12/11 00:39:08;;;;;;;0.93;0.23;;;8.70;99.90;;;;;;2024545;28;20730;-84
2023/12/11 00:40:08;;;;;;;0.43;0.43;;;8.80;99.90;;;;;;2024434;29;20229;-84
2023/12/11 00:41:09;;;;;;;0.67;0.30;;;8.80;99.90;;;;;;2024387;28;20340;-84
2023/12/11 00:42:10;;;;;;;0.30;0.30;;;8.70;99.90;;;;;;2032399;29;20233;-83
2023/12/11 00:43:11;;;;;;;0.30;0.30;;;8.70;99.90;;;;;;2035833;29;20229;-84
2023/12/11 00:44:11;;;;;;;0.40;0.30;;;8.70;99.90;;;;;;2040242;28;20233;-83
2023/12/11 00:45:13;;;;;;;0.30;0.30;;;8.70;99.90;;;;;;2039764;28;20244;-82
2023/12/11 00:46:15;;;;;;;0.30;0.30;;;8.70;99.90;;;;;;2037349;29;20229;-82
2023/12/11 00:47:17;;;;;;;0.30;0.30;;;8.80;99.90;;;;;;2030671;28;20310;-84
2023/12/11 00:48:18;;;;;;;0.40;0.40;;;8.80;99.90;;;;;;2020495;29;20243;-84
2023/12/11 00:49:19;;;;;;;0.28;0.28;;;8.70;99.90;;;;;;2027006;28;20249;-83
2023/12/11 00:50:19;;;;;;;0.30;0.30;;;8.90;99.90;;;;;;2044194;28;20214;-84
2023/12/11 00:51:21;;;;;;;1.30;0.40;;;8.80;99.90;;;;;;2033077;28;20238;-84
2023/12/11 00:52:21;;;;;;;1.33;0.40;;;8.70;99.90;;;;;;2032690;29;20244;-83
2023/12/11 00:53:22;;;;;;;0.40;0.40;;;8.90;99.90;;;;;;2040770;29;20259;-84
2023/12/11 00:54:23;;;;;;;0.40;0.30;;;8.80;99.90;;;;;;2040215;28;20259;-83
2023/12/11 00:55:24;;;;;;;0.23;0.23;;;8.80;99.90;;;;;;2056356;28;20344;-84
2023/12/11 00:56:24;;;;;;;0.33;0.33;;;8.80;99.90;;;;;;2040844;28;20300;-84
2023/12/11 00:57:25;;;;;;;0.20;0.20;;;8.80;99.90;;;;;;2040368;28;20252;-84
2023/12/11 00:58:26;;;;;;;0.37;0.30;;;8.80;99.90;;;;;;2047823;28;20232;-84
2023/12/11 00:59:27;;;;;;;0.80;0.50;;;8.80;99.90;;;;;;2038053;28;20259;-84
2023/12/11 01:00:27;;;;;;;0.40;0.40;;;8.60;99.90;;;;;;2027926;28;20286;-84
2023/12/11 01:01:28;;;;;;;0.43;0.43;;;8.60;99.90;;;;;;2029540;29;20253;-84
2023/12/11 01:02:28;;;;;;;0.30;0.30;;;8.50;99.90;;;;;;2036785;29;20252;-84
2023/12/11 01:03:29;;;;;;;0.40;0.40;;;8.50;99.90;;;;;;2046659;29;20236;-83
2023/12/11 01:04:30;;;;;;;0.27;0.27;;;8.60;99.90;;;;;;2038523;29;20255;-84
2023/12/11 01:05:31;;;;;;;0.40;0.20;;;8.60;99.90;;;;;;2029902;28;20476;-85
2023/12/11 01:06:32;;;;;;;0.80;0.37;;;8.60;99.90;;;;;;2026276;29;20419;-86
2023/12/11 01:07:32;;;;;;;0.30;0.30;;;8.50;99.90;;;;;;2033668;29;20279;-85
2023/12/11 01:08:38;;;;;;;0.10;0.10;;;8.60;99.90;;;;;;2023650;28;20301;-84
2023/12/11 01:09:38;;;;;;;0.28;0.28;;;8.60;99.90;;;;;;2023839;28;20231;-84
2023/12/11 01:10:40;;;;;;;0.30;0.30;;;8.60;99.90;;;;;;2029783;29;20238;-85
2023/12/11 01:11:41;;;;;;;0.30;0.30;;;8.60;99.90;;;;;;2028698;28;20260;-84
2023/12/11 01:12:42;;;;;;;0.40;0.40;;;8.60;99.90;;;;;;2029730;28;20763;-86
2023/12/11 01:13:43;;;;;;;0.90;0.50;;;8.70;99.90;;;;;;2034631;28;20233;-84
2023/12/11 01:14:44;;;;;;;0.73;0.60;;;8.60;99.90;;;;;;2025272;29;20237;-83
2023/12/11 01:15:44;;;;;;;2.10;0.40;;;8.60;99.90;;;;;;2033665;29;20303;-83
2023/12/11 01:16:45;;;;;;;2.20;0.67;;;8.50;99.90;;;;;;2033775;28;20212;-85
2023/12/11 01:17:46;;;;;;;0.80;0.40;;;8.60;99.90;;;;;;2025814;28;20189;-83
2023/12/11 01:18:46;;;;;;;0.30;0.30;;;8.50;99.90;;;;;;2026024;29;20749;-84
2023/12/11 01:19:47;;;;;;;0.30;0.30;;;8.60;99.90;;;;;;2033071;29;20197;-84
2023/12/11 01:20:48;;;;;;;0.40;0.40;;;8.50;99.90;;;;;;2028401;29;20200;-85
2023/12/11 01:21:48;;;;;;;1.03;0.40;;;8.50;99.90;;;;;;2025202;28;20241;-84
2023/12/11 01:22:49;;;;;;;0.40;0.40;;;8.50;99.90;;;;;;2021039;28;20235;-84
2023/12/11 01:23:50;;;;;;;0.30;0.30;;;8.50;99.90;;;;;;2023910;28;20190;-85
2023/12/11 01:24:51;;;;;;;0.30;0.30;;;8.50;99.90;;;;;;2020991;29;20202;-85
2023/12/11 01:25:51;;;;;;;0.30;0.30;;;8.50;99.90;;;;;;2030022;29;20200;-84
2023/12/11 01:26:52;;;;;;;0.93;0.40;;;8.50;99.90;;;;;;2032865;29;20196;-84
2023/12/11 01:27:53;;;;;;;0.93;0.30;;;8.50;99.90;;;;;;2023867;29;20232;-84
2023/12/11 01:28:53;;;;;;;0.30;0.30;;;8.60;99.90;;;;;;2031493;29;20292;-85
2023/12/11 01:29:54;;;;;;;0.30;0.30;;;8.50;99.90;;;;;;2038198;29;20196;-84
2023/12/11 01:30:55;;;;;;;0.40;0.40;;;8.50;99.90;;;;;;2039733;29;20685;-84
2023/12/11 01:31:55;;;;;;;0.30;0.30;;;8.50;99.90;;;;;;2040379;29;20196;-83
2023/12/11 01:32:56;;;;;;;0.50;0.50;;;8.60;99.90;;;;;;2033060;29;20720;-85
2023/12/11 01:33:57;;;;;;;0.37;0.37;;;8.60;99.90;;;;;;2016826;28;20202;-84
2023/12/11 01:34:57;;;;;;;0.43;0.43;;;8.60;99.90;;;;;;2024903;28;20200;-84
2023/12/11 01:35:58;;;;;;;0.83;0.30;;;8.60;99.90;;;;;;2030468;29;20189;-84
2023/12/11 01:36:59;;;;;;;0.30;0.30;;;8.50;99.90;;;;;;2021923;29;20198;-84
2023/12/11 01:38:00;;;;;;;0.30;0.30;;;8.60;99.90;;;;;;2023137;28;20201;-84
2023/12/11 01:39:00;;;;;;;0.20;0.20;;;8.60;99.90;;;;;;2031844;29;20193;-84
2023/12/11 01:40:02;;;;;;;0.30;0.30;;;8.50;99.90;;;;;;2023619;29;20459;-85
2023/12/11 01:41:03;;;;;;;0.20;0.20;;;8.50;99.90;;;;;;2021669;29;20197;-84
2023/12/11 01:42:04;;;;;;;1.67;0.50;;;8.60;99.90;;;;;;2023893;29;20311;-84
2023/12/11 01:43:15;;;;;;;0.30;0.30;;;8.60;99.90;;;;;;2024163;29;20264;-85
2023/12/11 01:44:16;;;;;;;0.30;0.30;;;8.60;99.90;;;;;;2040067;29;20322;-84
2023/12/11 01:45:16;;;;;;;0.30;0.30;;;8.60;99.90;;;;;;2040172;29;20232;-84
2023/12/11 01:46:20;;;;;;;0.43;0.30;;;8.60;99.90;;;;;;2023879;29;20321;-84
2023/12/11 01:47:21;;;;;;;0.30;0.30;;;8.60;99.90;;;;;;2017052;29;20237;-84
2023/12/11 01:48:22;;;;;;;0.30;0.30;;;8.70;99.90;;;;;;2024253;29;20260;-84
2023/12/11 01:49:23;;;;;;;0.20;0.20;;;8.70;99.90;;;;;;2037839;29;20236;-84
2023/12/11 01:50:23;;;;;;;0.30;0.30;;;8.60;99.90;;;;;;2029083;29;20228;-84
2023/12/11 01:51:25;;;;;;;0.20;0.20;;;8.70;99.90;;;;;;2024206;28;20265;-84
2023/12/11 01:52:26;;;;;;;0.20;0.20;;;8.70;99.90;;;;;;2024152;28;20237;-82
2023/12/11 01:53:27;;;;;;;0.30;0.30;;;8.70;99.90;;;;;;2031969;28;20312;-83
2023/12/11 01:54:29;;;;;;;0.20;0.20;;;8.70;99.90;;;;;;2036187;29;20236;-83
2023/12/11 01:55:32;;;;;;;0.28;0.28;;;8.60;99.90;;;;;;2031813;29;20260;-85
2023/12/11 01:56:33;;;;;;;0.30;0.30;;;8.60;99.90;;;;;;2031888;29;20233;-85
2023/12/11 01:57:35;;;;;;;1.33;0.40;;;8.60;99.90;;;;;;2024092;28;20292;-84
2023/12/11 01:58:36;;;;;;;0.20;0.20;;;8.70;99.90;;;;;;2024113;29;20380;-83
2023/12/11 01:59:38;;;;;;;0.30;0.30;;;8.70;99.90;;;;;;2029085;29;20319;-83
2023/12/11 02:00:39;;;;;;;0.20;0.20;;;8.70;99.90;;;;;;2031991;29;20232;-85
2023/12/11 02:01:41;;;;;;;0.30;0.30;;;8.70;99.90;;;;;;2022905;29;20668;-84
2023/12/11 02:02:41;;;;;;;0.35;0.35;;;8.70;99.90;;;;;;2022723;28;20722;-84
2023/12/11 02:03:42;;;;;;;0.20;0.20;;;8.70;99.90;;;;;;2023635;28;20225;-84
2023/12/11 02:04:43;;;;;;;0.20;0.20;;;8.70;99.90;;;;;;2030657;29;20232;-85
2023/12/11 02:05:44;;;;;;;0.87;0.27;;;8.70;99.90;;;;;;2022337;29;20659;-84
2023/12/11 02:06:44;;;;;;;0.30;0.30;;;8.60;99.90;;;;;;2014854;28;20202;-84
2023/12/11 02:07:45;;;;;;;0.20;0.20;;;8.70;99.90;;;;;;2015007;28;20190;-83
2023/12/11 02:08:46;;;;;;;0.30;0.30;;;8.60;99.90;;;;;;2023415;28;20198;-83
2023/12/11 02:09:47;;;;;;;0.30;0.25;;;8.70;99.90;;;;;;2028483;28;20185;-83
2023/12/11 02:10:49;;;;;;;0.20;0.20;;;8.80;99.90;;;;;;2038957;29;20265;-84
2023/12/11 02:11:50;;;;;;;0.90;0.20;;;8.80;99.90;;;;;;2038533;29;20249;-83
2023/12/11 02:12:51;;;;;;;0.22;0.22;;;8.80;99.90;;;;;;2034526;29;20192;-83
2023/12/11 02:13:51;;;;;;;0.20;0.20;;;8.70;99.90;;;;;;2032601;29;20276;-83
2023/12/11 02:14:52;;;;;;;0.20;0.20;;;8.70;99.90;;;;;;2021351;29;20288;-84
2023/12/11 02:15:53;;;;;;;0.30;0.30;;;8.70;99.90;;;;;;2071493;28;20201;-85
2023/12/11 02:16:54;;;;;;;0.30;0.30;;;8.90;99.90;;;;;;2030924;28;20221;-84
2023/12/11 02:17:55;;;;;;;0.20;0.20;;;8.80;99.90;;;;;;2031896;28;20205;-83
2023/12/11 02:18:55;;;;;;;0.30;0.30;;;8.70;99.90;;;;;;2020476;28;20202;-84
2023/12/11 02:19:56;;;;;;;0.40;0.40;;;8.70;99.90;;;;;;2024725;28;20197;-84
2023/12/11 02:20:57;;;;;;;0.30;0.30;;;8.60;99.90;;;;;;2024529;29;20197;-84
2023/12/11 02:21:57;;;;;;;0.30;0.30;;;8.60;99.90;;;;;;2032805;28;20292;-84
2023/12/11 02:23:22;;;;;;;0.60;0.33;;;8.70;99.90;;;;;;2021767;28;20209;-84
2023/12/11 02:24:30;;;;;;;0.30;0.30;;;8.60;99.90;;;;;;2051870;28;20226;-83
2023/12/11 02:25:34;;;;;;;0.30;0.30;;;8.70;99.90;;;;;;2030949;28;20221;-85
2023/12/11 02:26:35;;;;;;;0.30;0.30;;;8.70;99.90;;;;;;2025027;28;20706;-84
2023/12/11 02:27:36;;;;;;;0.53;0.33;;;8.60;99.90;;;;;;2023942;29;20244;-84
2023/12/11 02:28:36;;;;;;;0.30;0.30;;;8.60;99.90;;;;;;2051012;28;20926;-85
2023/12/11 02:29:37;;;;;;;0.20;0.20;;;8.80;99.90;;;;;;2032909;29;20679;-84
2023/12/11 02:30:50;;;;;;;0.20;0.20;;;8.70;99.90;;;;;;2040110;29;20681;-85
2023/12/11 02:31:51;;;;;;;0.30;0.30;;;8.60;99.90;;;;;;2033573;29;20221;-84
2023/12/11 02:32:52;;;;;;;0.30;0.30;;;8.60;99.90;;;;;;2032486;29;20189;-83
2023/12/11 02:33:53;;;;;;;0.30;0.30;;;8.60;99.90;;;;;;2033067;29;20185;-84
2023/12/11 02:34:53;;;;;;;0.20;0.20;;;8.60;99.90;;;;;;2040226;29;20197;-84
2023/12/11 02:35:54;;;;;;;0.20;0.20;;;8.60;99.90;;;;;;2031475;29;20189;-83
2023/12/11 02:36:55;;;;;;;0.30;0.30;;;8.60;99.90;;;;;;2023203;28;20218;-83
2023/12/11 02:37:55;;;;;;;2.03;0.40;;;8.70;99.90;;;;;;2023722;28;20872;-84
2023/12/11 02:38:57;;;;;;;0.30;0.30;;;8.60;99.90;;;;;;2019336;28;20193;-85
2023/12/11 02:39:58;;;;;;;0.93;0.30;;;8.60;99.90;;;;;;2025332;28;20186;-84
2023/12/11 02:40:59;;;;;;;0.77;0.20;;;8.60;99.90;;;;;;2020977;28;20261;-83
2023/12/11 02:41:59;;;;;;;1.40;0.37;;;8.60;99.90;;;;;;2038957;28;20195;-84
2023/12/11 02:43:00;;;;;;;0.73;0.40;;;8.70;99.90;;;;;;2043189;28;20297;-84
2023/12/11 02:44:00;;;;;;;0.30;0.30;;;8.60;99.90;;;;;;2033052;28;20216;-85
2023/12/11 02:45:01;;;;;;;0.30;0.30;;;8.70;99.90;;;;;;2028795;28;20652;-85
2023/12/11 02:46:02;;;;;;;2.67;0.37;;;8.60;99.90;;;;;;2023579;29;20199;-83
2023/12/11 02:47:03;;;;;;;0.22;0.22;;;8.60;99.90;;;;;;2017945;28;20190;-84
2023/12/11 02:48:04;;;;;;;0.23;0.23;;;8.70;99.90;;;;;;2024277;28;20244;-84
2023/12/11 02:49:05;;;;;;;0.30;0.30;;;8.60;99.90;;;;;;2024957;29;20246;-83
2023/12/11 02:50:06;;;;;;;0.30;0.30;;;8.60;99.90;;;;;;2023983;29;20233;-85
2023/12/11 02:51:07;;;;;;;0.20;0.20;;;8.60;99.90;;;;;;2031655;29;20229;-83
2023/12/11 02:52:08;;;;;;;0.40;0.40;;;8.60;99.90;;;;;;2040789;29;20954;-83
2023/12/11 02:53:09;;;;;;;0.30;0.30;;;8.70;99.90;;;;;;2031838;29;20475;-84
2023/12/11 02:54:10;;;;;;;0.30;0.30;;;8.70;99.90;;;;;;2014692;29;20668;-84
2023/12/11 02:55:10;;;;;;;0.30;0.30;;;8.70;99.90;;;;;;2019184;28;20226;-85
2023/12/11 02:56:11;;;;;;;0.30;0.30;;;8.70;99.90;;;;;;2029683;29;20229;-83
2023/12/11 02:57:12;;;;;;;0.40;0.40;;;8.70;99.90;;;;;;2025284;29;20284;-84
2023/12/11 02:58:12;;;;;;;0.30;0.30;;;8.70;99.90;;;;;;2032175;28;20596;-84
2023/12/11 02:59:13;;;;;;;0.30;0.30;;;8.70;99.90;;;;;;2024530;28;20226;-84
2023/12/11 03:00:15;;;;;;;1.60;0.67;;;8.70;99.90;;;;;;2017360;29;20286;-84
2023/12/11 03:01:15;;;;;;;1.30;0.30;;;8.70;99.90;;;;;;2021084;28;20225;-84
2023/12/11 03:02:16;;;;;;;1.13;0.40;;;8.70;99.90;;;;;;2036809;29;20236;-84
2023/12/11 03:03:17;;;;;;;0.40;0.40;;;8.70;99.90;;;;;;2024390;28;20615;-84
2023/12/11 03:04:17;;;;;;;0.33;0.33;;;8.80;99.90;;;;;;2031310;29;20252;-84
2023/12/11 03:05:18;;;;;;;0.80;0.40;;;8.80;99.90;;;;;;2040769;29;20255;-85
2023/12/11 03:06:19;;;;;;;0.30;0.30;;;8.80;99.90;;;;;;2032264;29;20236;-83
2023/12/11 03:07:20;;;;;;;1.38;0.40;;;8.80;99.90;;;;;;2063191;28;20234;-83
2023/12/11 03:08:21;;;;;;;0.33;0.33;;;8.70;99.90;;;;;;2031475;29;20241;-83
2023/12/11 03:09:21;;;;;;;0.30;0.30;;;8.70;99.90;;;;;;2037288;29;20284;-84
2023/12/11 03:10:23;;;;;;;0.37;0.37;;;8.80;99.90;;;;;;2026122;28;20755;-84
2023/12/11 03:11:23;;;;;;;0.60;0.50;;;8.70;99.90;;;;;;2026252;29;20242;-84
2023/12/11 03:12:24;;;;;;;0.40;0.37;;;8.70;99.90;;;;;;2034022;29;20253;-83
2023/12/11 03:13:25;;;;;;;0.27;0.27;;;8.70;99.90;;;;;;2040781;29;20302;-85
2023/12/11 03:14:25;;;;;;;0.30;0.30;;;8.70;99.90;;;;;;2025778;28;20234;-85
2023/12/11 03:15:27;;;;;;;0.30;0.30;;;8.70;99.90;;;;;;2025563;28;20241;-85
2023/12/11 03:16:27;;;;;;;0.20;0.20;;;8.60;99.90;;;;;;2027078;29;20233;-83
2023/12/11 03:17:28;;;;;;;0.83;0.50;;;8.70;99.90;;;;;;2024898;28;20802;-85
2023/12/11 03:18:29;;;;;;;0.20;0.20;;;8.70;99.90;;;;;;2065848;28;20245;-83
2023/12/11 03:19:29;;;;;;;0.30;0.30;;;8.70;99.90;;;;;;2041021;29;20807;-85
2023/12/11 03:20:30;;;;;;;0.50;0.50;;;8.70;99.90;;;;;;2026011;28;20241;-85
2023/12/11 03:21:31;;;;;;;0.40;0.40;;;8.80;99.90;;;;;;2024673;28;20253;-84
2023/12/11 03:22:31;;;;;;;0.40;0.40;;;8.80;99.90;;;;;;2024340;28;20479;-84
2023/12/11 03:23:32;;;;;;;0.40;0.40;;;8.80;99.90;;;;;;2017306;29;20265;-84
2023/12/11 03:24:33;;;;;;;0.40;0.40;;;8.80;99.90;;;;;;2051190;28;20699;-84
2023/12/11 03:25:33;;;;;;;0.37;0.37;;;8.80;99.90;;;;;;2039751;28;20290;-84
2023/12/11 03:26:34;;;;;;;0.53;0.30;;;8.80;99.90;;;;;;2058948;28;20859;-84
2023/12/11 03:27:35;;;;;;;0.27;0.27;;;8.80;99.90;;;;;;2056282;28;20240;-83
2023/12/11 03:28:35;;;;;;;0.40;0.40;;;8.90;99.90;;;;;;2045273;28;20244;-83
2023/12/11 03:29:36;;;;;;;0.20;0.20;;;8.70;99.90;;;;;;2026441;28;20222;-85
2023/12/11 03:30:37;;;;;;;0.30;0.30;;;8.80;99.90;;;;;;2046267;28;20218;-84
2023/12/11 03:31:37;;;;;;;1.13;0.40;;;8.80;99.90;;;;;;2032711;28;20227;-84
2023/12/11 03:32:39;;;;;;;0.83;0.37;;;8.80;99.90;;;;;;2024700;28;20222;-84
2023/12/11 03:33:40;;;;;;;0.20;0.20;;;8.80;99.90;;;;;;2040684;28;20258;-83
2023/12/11 03:34:41;;;;;;;0.23;0.23;;;8.80;99.90;;;;;;2029434;28;20229;-85
2023/12/11 03:35:41;;;;;;;0.20;0.20;;;8.90;99.90;;;;;;2019704;28;20281;-84
2023/12/11 03:36:42;;;;;;;0.40;0.30;;;8.80;99.90;;;;;;2034097;28;20265;-84
2023/12/11 03:37:43;;;;;;;0.30;0.30;;;8.80;99.90;;;;;;2051907;28;20221;-84
2023/12/11 03:38:44;;;;;;;0.43;0.40;;;8.80;99.90;;;;;;2042910;28;20226;-84
2023/12/11 03:39:44;;;;;;;0.30;0.30;;;8.70;99.90;;;;;;2048588;28;20196;-84
2023/12/11 03:40:45;;;;;;;0.40;0.40;;;8.70;99.90;;;;;;2054382;28;20189;-84
2023/12/11 03:41:47;;;;;;;0.40;0.40;;;8.70;99.90;;;;;;2045097;28;20193;-84
2023/12/11 03:42:47;;;;;;;0.30;0.30;;;8.80;99.90;;;;;;2041893;28;20214;-83
2023/12/11 03:43:48;;;;;;;0.40;0.40;;;8.70;99.90;;;;;;2051307;28;20182;-84
2023/12/11 03:44:49;;;;;;;0.40;0.40;;;8.80;99.90;;;;;;2060677;28;20235;-84
2023/12/11 03:45:54;;;;;;;0.40;0.40;;;8.70;99.90;;;;;;2038164;28;20658;-83
2023/12/11 03:46:55;;;;;;;0.60;0.60;;;8.70;99.90;;;;;;2072822;28;20197;-84
2023/12/11 03:47:56;;;;;;;0.70;0.40;;;8.70;99.90;;;;;;2065545;28;20683;-83
2023/12/11 03:48:56;;;;;;;0.30;0.30;;;8.70;99.90;;;;;;2028527;29;20781;-82
2023/12/11 03:49:57;;;;;;;0.30;0.30;;;8.70;99.90;;;;;;2025556;29;20186;-85
2023/12/11 03:50:58;;;;;;;0.70;0.63;;;8.70;99.90;;;;;;2026038;28;20231;-85
2023/12/11 03:51:59;;;;;;;2.17;0.40;;;8.70;99.90;;;;;;2034725;28;20704;-83
2023/12/11 03:52:59;;;;;;;0.57;0.47;;;8.60;99.90;;;;;;2071030;28;20253;-83
2023/12/11 03:54:03;;;;;;;2.30;0.67;;;8.50;99.90;;;;;;2047349;28;20174;-83
2023/12/11 03:55:04;;;;;;;0.40;0.40;;;8.60;99.90;;;;;;2045371;28;20249;-84
2023/12/11 03:56:06;;;;;;;0.40;0.40;;;8.60;99.90;;;;;;2050316;28;20251;-84
2023/12/11 03:57:06;;;;;;;0.40;0.40;;;8.60;99.90;;;;;;2036284;28;20264;-84
2023/12/11 03:58:07;;;;;;;0.40;0.40;;;8.60;99.90;;;;;;2029521;28;20254;-84
2023/12/11 03:59:08;;;;;;;0.30;0.30;;;8.70;99.90;;;;;;2048211;28;20251;-84
2023/12/11 04:00:10;;;;;;;0.38;0.38;;;8.60;99.90;;;;;;2045377;28;20332;-85
2023/12/11 04:01:10;;;;;;;0.40;0.40;;;8.60;99.90;;;;;;2031893;28;20242;-85
2023/12/11 04:02:11;;;;;;;0.63;0.50;;;8.60;99.90;;;;;;2028783;28;20226;-84
2023/12/11 04:03:12;;;;;;;0.40;0.40;;;8.60;99.90;;;;;;2053984;28;20712;-84
2023/12/11 04:04:12;;;;;;;0.50;0.50;;;8.60;99.90;;;;;;2031290;29;20324;-84
2023/12/11 04:05:13;;;;;;;0.40;0.40;;;8.60;99.90;;;;;;2043781;28;20312;-84
2023/12/11 04:06:14;;;;;;;0.50;0.40;;;8.60;99.90;;;;;;2053794;28;20245;-85
2023/12/11 04:07:15;;;;;;;0.40;0.40;;;8.60;99.90;;;;;;2040509;28;20261;-84
2023/12/11 04:08:16;;;;;;;0.30;0.30;;;8.60;99.90;;;;;;2051493;28;20374;-84
2023/12/11 04:09:17;;;;;;;0.68;0.40;;;8.60;99.90;;;;;;2044533;28;20233;-84
2023/12/11 04:10:18;;;;;;;1.90;0.50;;;8.60;99.90;;;;;;2034881;28;20278;-84
2023/12/11 04:11:18;;;;;;;0.60;0.30;;;8.60;99.90;;;;;;2045571;28;20313;-84
2023/12/11 04:12:19;;;;;;;0.50;0.50;;;8.70;99.90;;;;;;2053927;28;20233;-85
2023/12/11 04:13:20;;;;;;;0.40;0.40;;;8.70;99.90;;;;;;2053580;28;20268;-84
2023/12/11 04:14:20;;;;;;;2.30;0.40;;;8.70;99.90;;;;;;2039277;28;20238;-83
2023/12/11 04:15:21;;;;;;;0.43;0.40;;;8.70;99.90;;;;;;2025484;28;20226;-84
2023/12/11 04:16:22;;;;;;;0.50;0.40;;;8.60;99.90;;;;;;2035200;28;20257;-84
2023/12/11 04:17:22;;;;;;;2.73;0.63;;;8.70;99.90;;;;;;2036729;28;20267;-84
2023/12/11 04:18:23;;;;;;;1.40;0.40;;;8.60;99.90;;;;;;2056825;28;20232;-84
2023/12/11 04:19:24;;;;;;;1.60;0.50;;;8.50;99.90;;;;;;2022946;28;20660;-84
2023/12/11 04:20:26;;;;;;;0.30;0.30;;;8.50;99.90;;;;;;2036950;28;20303;-84
2023/12/11 04:21:27;;;;;;;0.40;0.35;;;8.50;99.90;;;;;;2051650;28;20712;-84
2023/12/11 04:22:27;;;;;;;1.70;0.67;;;8.50;99.90;;;;;;2037751;28;20225;-83
2023/12/11 04:23:28;;;;;;;0.90;0.30;;;8.50;99.90;;;;;;2022197;28;20249;-83
2023/12/11 04:24:29;;;;;;;0.43;0.43;;;8.50;99.90;;;;;;2026478;28;20727;-84
2023/12/11 04:25:30;;;;;;;0.40;0.40;;;8.50;99.90;;;;;;2030819;29;20613;-85
2023/12/11 04:26:30;;;;;;;0.67;0.40;;;8.40;99.90;;;;;;2027172;29;20216;-84
2023/12/11 04:27:31;;;;;;;1.03;0.40;;;8.50;99.90;;;;;;2035705;28;20225;-84
2023/12/11 04:28:32;;;;;;;0.40;0.40;;;8.60;99.90;;;;;;2024445;29;20234;-84
2023/12/11 04:29:33;;;;;;;0.40;0.40;;;8.50;99.90;;;;;;2047149;28;20240;-84
2023/12/11 04:30:34;;;;;;;3.63;1.03;;;8.50;99.90;;;;;;2036329;28;20292;-84
2023/12/11 04:31:35;;;;;;;0.50;0.50;;;8.50;99.90;;;;;;2025059;28;20253;-84
2023/12/11 04:32:35;;;;;;;0.33;0.33;;;8.50;99.90;;;;;;2051835;28;20471;-85
2023/12/11 04:33:37;;;;;;;0.40;0.40;;;8.50;99.90;;;;;;2044855;28;20283;-84
2023/12/11 04:34:38;;;;;;;0.55;0.52;;;8.60;99.90;;;;;;2059931;28;20240;-84
2023/12/11 04:35:38;;;;;;;0.40;0.30;;;8.60;99.90;;;;;;2047921;28;20232;-83
2023/12/11 04:36:43;;;;;;;0.77;0.47;;;8.50;99.90;;;;;;2021653;28;20332;-83
2023/12/11 04:37:44;;;;;;;0.55;0.47;;;8.50;99.90;;;;;;2020359;29;20249;-82
2023/12/11 04:38:44;;;;;;;1.43;0.40;;;8.50;99.90;;;;;;2050251;28;20220;-82
2023/12/11 04:39:45;;;;;;;0.67;0.40;;;8.40;99.90;;;;;;2020341;29;20236;-85
2023/12/11 04:40:46;;;;;;;1.37;0.80;;;8.40;99.90;;;;;;2035511;28;20249;-82
2023/12/11 04:41:46;;;;;;;3.33;0.80;;;8.50;99.90;;;;;;2041278;28;20236;-84
2023/12/11 04:42:47;;;;;;;0.77;0.50;;;8.40;99.90;;;;;;2051354;28;20197;-83
2023/12/11 04:43:48;;;;;;;0.50;0.50;;;8.40;99.90;;;;;;2060545;28;20242;-84
2023/12/11 04:44:48;;;;;;;0.73;0.60;;;8.30;99.90;;;;;;2039585;29;20239;-82
2023/12/11 04:45:49;;;;;;;0.73;0.50;;;8.40;99.90;;;;;;2040449;28;20193;-83
2023/12/11 04:46:50;;;;;;;0.60;0.50;;;8.40;99.90;;;;;;2054898;28;20185;-82
2023/12/11 04:47:50;;;;;;;1.27;0.50;;;8.50;99.90;;;;;;2034644;28;20277;-84
2023/12/11 04:48:51;;;;;;;0.40;0.40;;;8.50;99.90;;;;;;2033343;28;20235;-84
2023/12/11 04:49:52;;;;;;;0.77;0.77;;;8.40;99.90;;;;;;2047933;28;20585;-84
2023/12/11 04:50:53;;;;;;;0.60;0.60;;;8.40;99.90;;;;;;2041853;28;20184;-84
2023/12/11 04:51:54;;;;;;;1.07;0.57;;;8.30;99.90;;;;;;2030465;28;20252;-84
2023/12/11 04:52:54;;;;;;;0.63;0.63;;;8.40;99.90;;;;;;2031637;29;20197;-84
2023/12/11 04:53:55;;;;;;;0.90;0.70;;;8.40;99.90;;;;;;2038946;28;20239;-84
2023/12/11 04:54:57;;;;;;;0.60;0.60;;;8.30;99.90;;;;;;2058906;28;20203;-84
2023/12/11 04:55:58;;;;;;;0.50;0.50;;;8.40;99.90;;;;;;2067317;28;20189;-84
2023/12/11 04:56:58;;;;;;;0.93;0.60;;;8.40;99.90;;;;;;2044303;28;20198;-82
2023/12/11 04:57:59;;;;;;;0.60;0.60;;;8.40;99.90;;;;;;2033650;28;20645;-84
2023/12/11 04:59:01;;;;;;;0.40;0.40;;;8.40;99.90;;;;;;2049707;28;20197;-84
2023/12/11 05:00:04;;;;;;;0.40;0.40;;;8.40;99.90;;;;;;2052159;28;20184;-84
2023/12/11 05:01:05;;;;;;;0.70;0.70;;;8.30;99.90;;;;;;2035173;29;20229;-83
2023/12/11 05:02:06;;;;;;;0.60;0.50;;;8.30;99.90;;;;;;2033258;29;20298;-82
2023/12/11 05:03:06;;;;;;;0.60;0.60;;;8.30;99.90;;;;;;2036709;28;20275;-81
2023/12/11 05:04:07;;;;;;;1.07;0.70;;;8.30;99.90;;;;;;2044230;28;20247;-83
2023/12/11 05:05:08;;;;;;;0.57;0.50;;;8.30;99.90;;;;;;2045406;28;20221;-83
2023/12/11 05:06:09;;;;;;;2.30;0.73;;;8.30;99.90;;;;;;2046103;28;20284;-83
2023/12/11 05:07:09;;;;;;;1.20;0.70;;;8.30;99.90;;;;;;2039213;28;20256;-84
2023/12/11 05:08:10;;;;;;;1.33;0.50;;;8.40;99.90;;;;;;2036436;28;20264;-84
2023/12/11 05:09:11;;;;;;;1.27;0.50;;;8.40;99.90;;;;;;2033537;28;20316;-84
2023/12/11 05:10:12;;;;;;;1.02;0.50;;;8.40;99.90;;;;;;2045776;28;20241;-83
2023/12/11 05:11:12;;;;;;;0.70;0.70;;;8.40;99.90;;;;;;2045750;28;20233;-84
2023/12/11 05:12:13;;;;;;;0.50;0.50;;;8.40;99.90;;;;;;2051648;28;20299;-84
2023/12/11 05:13:14;;;;;;;1.03;0.50;;;8.40;99.90;;;;;;2048777;28;20243;-83
2023/12/11 05:14:14;;;;;;;0.70;0.70;;;8.40;99.90;;;;;;2044443;28;20241;-84
2023/12/11 05:15:15;;;;;;;0.40;0.40;;;8.40;99.90;;;;;;2033047;28;20272;-84
2023/12/11 05:16:16;;;;;;;0.80;0.50;;;8.50;99.90;;;;;;2032093;28;20246;-84
2023/12/11 05:17:16;;;;;;;0.40;0.40;;;8.50;99.90;;;;;;2026365;28;20229;-84
2023/12/11 05:18:18;;;;;;;0.70;0.60;;;8.40;99.90;;;;;;2032402;29;20272;-84
2023/12/11 05:19:19;;;;;;;0.60;0.60;;;8.50;99.90;;;;;;2046272;28;20229;-84
2023/12/11 05:20:20;;;;;;;0.93;0.50;;;8.50;99.90;;;;;;2035741;28;20275;-84
2023/12/11 05:21:21;;;;;;;0.50;0.50;;;8.60;99.90;;;;;;2063347;28;20264;-84
2023/12/11 05:22:22;;;;;;;1.20;0.65;;;8.60;99.90;;;;;;2064613;28;20249;-85